createdAt,value
2018-11-21T00:00:38.025Z,99274.12
2018-11-21T00:03:05.685Z,99275.81
2018-11-21T00:05:34.730Z,99276.77
2018-11-21T00:08:03.076Z,99283.15
2018-11-21T00:10:31.133Z,99286.02
2018-11-21T00:12:58.811Z,99294.50
2018-11-21T00:15:26.854Z,99304.77
2018-11-21T00:17:54.572Z,99309.18
2018-11-21T00:20:22.673Z,99313.23
2018-11-21T00:22:50.489Z,99315.25
2018-11-21T00:25:18.219Z,99326.78
2018-11-21T00:27:46.217Z,99325.77
2018-11-21T00:30:15.135Z,99319.22
2018-11-21T00:32:42.828Z,99323.03
2018-11-21T00:35:10.786Z,99330.91
2018-11-21T00:37:38.589Z,99326.47
2018-11-21T00:40:09.750Z,99337.08
2018-11-21T00:42:38.197Z,99327.16
2018-11-21T00:45:07.015Z,99320.88
2018-11-21T00:47:34.699Z,99315.27
2018-11-21T00:50:02.636Z,99316.23
2018-11-21T00:52:30.311Z,99318.47
2018-11-21T00:54:58.710Z,99315.55
2018-11-21T00:57:26.436Z,99318.37
2018-11-21T00:59:54.136Z,99318.30
2018-11-21T01:02:21.851Z,99319.48
2018-11-21T01:04:49.845Z,99312.97
2018-11-21T01:07:17.491Z,99305.59
2018-11-21T01:09:45.983Z,99316.16
2018-11-21T01:12:13.671Z,99326.95
2018-11-21T01:14:42.419Z,99336.70
2018-11-21T01:17:10.960Z,99338.33
2018-11-21T01:19:38.976Z,99350.14
2018-11-21T01:22:06.685Z,99374.53
2018-11-21T01:24:35.364Z,99383.94
2018-11-21T01:27:03.371Z,99378.40
2018-11-21T01:29:31.488Z,99375.47
2018-11-21T01:31:59.845Z,99374.66
2018-11-21T01:34:28.411Z,99378.05
2018-11-21T01:36:56.278Z,99382.27
2018-11-21T01:39:23.928Z,99388.38
2018-11-21T01:41:52.368Z,99391.91
2018-11-21T01:44:21.018Z,99395.78
2018-11-21T01:46:48.637Z,99395.78
2018-11-21T01:49:16.340Z,99397.67
2018-11-21T01:51:44.017Z,99394.75
2018-11-21T01:54:12.103Z,99402.73
2018-11-21T01:56:39.756Z,99418.81
2018-11-21T01:59:07.718Z,99418.47
2018-11-21T02:01:35.476Z,99413.44
2018-11-21T02:04:03.199Z,99419.52
2018-11-21T02:06:31.258Z,99417.41
2018-11-21T02:08:58.864Z,99411.30
2018-11-21T02:11:26.633Z,99410.48
2018-11-21T02:13:54.971Z,99417.75
2018-11-21T02:16:23.090Z,99404.17
2018-11-21T02:18:50.703Z,99407.70
2018-11-21T02:21:18.443Z,99403.48
2018-11-21T02:23:46.119Z,99393.98
2018-11-21T02:26:13.812Z,99396.09
2018-11-21T02:28:41.928Z,99406.75
2018-11-21T02:31:09.968Z,99398.67
2018-11-21T02:33:40.686Z,99407.02
2018-11-21T02:36:08.374Z,99394.95
2018-11-21T02:38:36.058Z,99399.42
2018-11-21T02:41:03.731Z,99399.52
2018-11-21T02:43:31.766Z,99394.36
2018-11-21T02:45:59.794Z,99397.66
2018-11-21T02:48:27.425Z,99394.27
2018-11-21T02:50:55.111Z,99407.84
2018-11-21T02:53:23.502Z,99405.61
2018-11-21T02:55:51.148Z,99419.33
2018-11-21T02:58:18.845Z,99433.86
2018-11-21T03:00:46.559Z,99433.17
2018-11-21T03:03:14.575Z,99440.78
2018-11-21T03:05:42.635Z,99433.86
2018-11-21T03:08:10.283Z,99431.27
2018-11-21T03:10:38.056Z,99429.52
2018-11-21T03:13:05.940Z,99437.25
2018-11-21T03:15:34.442Z,99447.57
2018-11-21T03:18:02.922Z,99453.20
2018-11-21T03:20:30.897Z,99465.28
2018-11-21T03:22:58.835Z,99467.05
2018-11-21T03:25:26.520Z,99463.78
2018-11-21T03:27:54.521Z,99473.41
2018-11-21T03:30:22.497Z,99481.25
2018-11-21T03:32:50.212Z,99490.66
2018-11-21T03:35:18.581Z,99498.02
2018-11-21T03:37:46.329Z,99505.54
2018-11-21T03:40:14.015Z,99511.39
2018-11-21T03:42:41.717Z,99512.81
2018-11-21T03:45:10.487Z,99505.59
2018-11-21T03:47:38.238Z,99498.42
2018-11-21T03:50:08.384Z,99514.02
2018-11-21T03:52:36.759Z,99518.02
2018-11-21T03:55:05.427Z,99526.22
2018-11-21T03:57:33.364Z,99527.03
2018-11-21T04:00:01.208Z,99532.54
2018-11-21T04:05:22.207Z,99530.78
2018-11-21T04:07:50.080Z,99534.77
2018-11-21T04:10:17.761Z,99545.56
2018-11-21T04:12:45.504Z,99547.41
2018-11-21T04:15:13.407Z,99544.36
2018-11-21T04:17:41.075Z,99554.45
2018-11-21T04:20:09.027Z,99555.62
2018-11-21T04:22:37.273Z,99552.00
2018-11-21T04:25:06.301Z,99548.38
2018-11-21T04:27:34.030Z,99554.45
2018-11-21T04:30:01.671Z,99550.36
2018-11-21T04:32:30.048Z,99545.80
2018-11-21T04:34:57.849Z,99554.00
2018-11-21T04:37:25.512Z,99557.05
2018-11-21T04:39:53.571Z,99550.23
2018-11-21T04:42:21.281Z,99549.79
2018-11-21T04:44:49.342Z,99551.42
2018-11-21T04:47:17.026Z,99544.04
2018-11-21T04:49:45.054Z,99553.41
2018-11-21T04:52:12.795Z,99558.56
2018-11-21T04:54:40.435Z,99566.08
2018-11-21T04:57:08.123Z,99555.63
2018-11-21T04:59:35.820Z,99556.91
2018-11-21T05:02:03.569Z,99554.92
2018-11-21T05:07:43.070Z,99567.94
2018-11-21T05:10:10.800Z,99571.89
2018-11-21T05:12:38.533Z,99566.27
2018-11-21T05:15:06.547Z,99572.50
2018-11-21T05:17:34.240Z,99566.75
2018-11-21T05:20:02.202Z,99557.17
2018-11-21T05:22:29.920Z,99558.45
2018-11-21T05:24:57.618Z,99550.95
2018-11-21T05:27:25.277Z,99543.91
2018-11-21T05:29:53.319Z,99542.49
2018-11-21T05:32:21.267Z,99548.84
2018-11-21T05:34:48.956Z,99554.47
2018-11-21T05:37:16.643Z,99548.94
2018-11-21T05:39:44.668Z,99545.80
2018-11-21T05:42:12.364Z,99543.56
2018-11-21T05:44:40.034Z,99553.63
2018-11-21T05:47:07.737Z,99555.64
2018-11-21T05:49:35.798Z,99562.44
2018-11-21T05:52:03.578Z,99567.47
2018-11-21T05:54:31.362Z,99572.50
2018-11-21T05:56:59.278Z,99571.09
2018-11-21T05:59:26.961Z,99573.66
2018-11-21T06:01:54.653Z,99579.55
2018-11-21T06:04:22.284Z,99575.08
2018-11-21T06:06:49.943Z,99575.08
2018-11-21T06:09:17.669Z,99582.69
2018-11-21T06:11:45.377Z,99591.72
2018-11-21T06:14:13.120Z,99595.23
2018-11-21T06:16:40.752Z,99594.08
2018-11-21T06:19:08.422Z,99593.85
2018-11-21T06:21:36.497Z,99586.68
2018-11-21T06:24:04.332Z,99588.56
2018-11-21T06:26:32.085Z,99590.33
2018-11-21T06:29:00.079Z,99586.80
2018-11-21T06:31:28.116Z,99584.22
2018-11-21T06:33:55.814Z,99595.70
2018-11-21T06:36:23.848Z,99588.78
2018-11-21T06:38:51.551Z,99589.05
2018-11-21T06:41:19.212Z,99594.20
2018-11-21T06:43:46.912Z,99606.97
2018-11-21T06:46:15.355Z,99614.11
2018-11-21T06:48:42.986Z,99603.45
2018-11-21T06:51:10.659Z,99611.77
2018-11-21T06:53:38.335Z,99616.46
2018-11-21T06:56:06.276Z,99613.41
2018-11-21T06:58:34.708Z,99614.70
2018-11-21T07:01:02.781Z,99629.70
2018-11-21T07:03:30.453Z,99636.97
2018-11-21T07:05:58.096Z,99644.58
2018-11-21T07:08:25.779Z,99647.16
2018-11-21T07:10:54.137Z,99660.87
2018-11-21T07:13:22.129Z,99666.28
2018-11-21T07:15:50.064Z,99662.88
2018-11-21T07:18:17.817Z,99668.14
2018-11-21T07:20:45.812Z,99670.51
2018-11-21T07:23:13.826Z,99670.61
2018-11-21T07:25:41.528Z,99670.27
2018-11-21T07:28:12.946Z,99676.73
2018-11-21T07:30:36.893Z,99680.61
2018-11-21T07:33:05.262Z,99682.25
2018-11-21T07:35:32.942Z,99682.95
2018-11-21T07:38:00.720Z,99680.13
2018-11-21T07:40:28.409Z,99678.92
2018-11-21T07:42:56.056Z,99682.33
2018-11-21T07:45:23.883Z,99687.95
2018-11-21T07:47:51.712Z,99694.14
2018-11-21T07:50:20.462Z,99700.67
2018-11-21T07:52:48.141Z,99711.55
2018-11-21T07:55:15.774Z,99710.81
2018-11-21T07:57:51.993Z,99712.73
2018-11-21T08:01:18.525Z,99718.08
2018-11-21T08:03:48.331Z,99727.06
2018-11-21T08:06:27.879Z,99731.15
2018-11-21T08:09:33.153Z,99737.73
2018-11-21T08:12:19.311Z,99740.18
2018-11-21T08:15:19.639Z,99742.58
2018-11-21T08:18:03.870Z,99739.63
2018-11-21T08:20:40.996Z,99747.78
2018-11-21T08:23:28.243Z,99762.05
2018-11-21T08:26:34.039Z,99759.84
2018-11-21T08:29:01.665Z,99759.50
2018-11-21T08:31:29.346Z,99759.11
2018-11-21T08:33:56.998Z,99763.88
2018-11-21T08:36:24.657Z,99775.02
2018-11-21T08:38:52.399Z,99782.93
2018-11-21T08:41:20.383Z,99786.28
2018-11-21T08:43:48.116Z,99779.06
2018-11-21T08:46:15.891Z,99782.48
2018-11-21T08:48:43.590Z,99777.20
2018-11-21T08:51:11.615Z,99774.56
2018-11-21T08:53:39.273Z,99775.48
2018-11-21T08:56:06.995Z,99781.97
2018-11-21T08:58:34.704Z,99783.27
2018-11-21T09:01:03.215Z,99777.27
2018-11-21T09:03:31.006Z,99772.22
2018-11-21T09:05:58.657Z,99776.64
2018-11-21T09:08:26.566Z,99775.55
2018-11-21T09:10:54.244Z,99778.67
2018-11-21T09:13:22.212Z,99780.44
2018-11-21T09:15:49.881Z,99785.19
2018-11-21T09:18:17.944Z,99776.11
2018-11-21T09:20:45.573Z,99766.42
2018-11-21T09:23:13.381Z,99772.86
2018-11-21T09:25:41.488Z,99768.72
2018-11-21T09:28:09.126Z,99775.26
2018-11-21T09:30:36.795Z,99775.83
2018-11-21T09:33:05.132Z,99782.25
2018-11-21T09:35:32.788Z,99775.69
2018-11-21T09:38:01.142Z,99783.27
2018-11-21T09:40:28.831Z,99782.88
2018-11-21T09:42:56.548Z,99797.08
2018-11-21T09:45:24.602Z,99790.20
2018-11-21T09:47:52.290Z,99784.39
2018-11-21T09:50:21.845Z,99783.52
2018-11-21T09:52:50.462Z,99781.73
2018-11-21T09:55:17.798Z,99795.30
2018-11-21T09:57:45.450Z,99798.18
2018-11-21T10:01:08.400Z,99802.89
2018-11-21T10:03:37.405Z,99807.45
2018-11-21T10:06:18.501Z,99806.05
2018-11-21T10:08:51.328Z,99802.34
2018-11-21T10:11:19.648Z,99804.88
2018-11-21T10:13:47.331Z,99809.11
2018-11-21T10:16:15.095Z,99813.67
2018-11-21T10:18:44.058Z,99814.72
2018-11-21T10:21:13.386Z,99820.59
2018-11-21T10:23:41.413Z,99821.85
2018-11-21T10:26:09.138Z,99823.56
2018-11-21T10:28:37.190Z,99816.65
2018-11-21T10:31:04.994Z,99812.50
2018-11-21T10:33:32.700Z,99822.81
2018-11-21T10:36:00.788Z,99817.67
2018-11-21T10:38:28.451Z,99818.42
2018-11-21T10:40:56.322Z,99819.16
2018-11-21T10:43:28.371Z,99820.25
2018-11-21T10:45:51.804Z,99822.14
2018-11-21T10:48:19.617Z,99819.14
2018-11-21T10:50:47.608Z,99823.07
2018-11-21T10:53:15.245Z,99824.78
2018-11-21T10:55:42.945Z,99830.19
2018-11-21T10:58:10.672Z,99834.13
2018-11-21T11:00:56.649Z,99834.53
2018-11-21T11:03:46.848Z,99840.47
2018-11-21T11:06:34.145Z,99847.00
2018-11-21T11:09:14.752Z,99839.50
2018-11-21T11:12:00.676Z,99834.49
2018-11-21T11:14:47.972Z,99834.41
2018-11-21T11:17:34.404Z,99830.43
2018-11-21T11:20:40.409Z,99833.03
2018-11-21T11:23:36.786Z,99845.39
2018-11-21T11:26:36.034Z,99844.49
2018-11-21T11:29:25.844Z,99839.73
2018-11-21T11:32:18.667Z,99843.94
2018-11-21T11:35:06.353Z,99841.43
2018-11-21T11:37:53.854Z,99841.40
2018-11-21T11:40:44.248Z,99845.56
2018-11-21T11:43:30.712Z,99840.66
2018-11-21T11:46:26.915Z,99840.56
2018-11-21T11:49:20.963Z,99838.13
2018-11-21T11:52:07.299Z,99830.71
2018-11-21T11:54:55.427Z,99833.21
2018-11-21T11:57:41.370Z,99837.30
2018-11-21T12:00:28.055Z,99841.53
2018-11-21T12:03:30.783Z,99839.10
2018-11-21T12:06:18.275Z,99844.67
2018-11-21T12:09:11.425Z,99842.67
2018-11-21T12:12:04.928Z,99849.49
2018-11-21T12:14:50.877Z,99856.97
2018-11-21T12:17:37.030Z,99855.79
2018-11-21T12:20:26.689Z,99857.25
2018-11-21T12:23:13.627Z,99857.73
2018-11-21T12:26:10.520Z,99852.34
2018-11-21T12:28:53.139Z,99841.94
2018-11-21T12:31:59.795Z,99831.80
2018-11-21T12:34:56.316Z,99838.95
2018-11-21T12:37:50.574Z,99836.67
2018-11-21T12:40:50.319Z,99837.55
2018-11-21T12:43:54.103Z,99830.30
2018-11-21T12:46:44.094Z,99827.92
2018-11-21T12:49:31.637Z,99826.52
2018-11-21T12:52:17.381Z,99830.44
2018-11-21T12:55:04.162Z,99832.94
2018-11-21T12:57:50.049Z,99829.09
2018-11-21T13:00:37.094Z,99834.06
2018-11-21T13:03:30.817Z,99833.64
2018-11-21T13:06:25.592Z,99835.73
2018-11-21T13:09:27.937Z,99835.22
2018-11-21T13:12:15.530Z,99841.70
2018-11-21T13:15:03.655Z,99833.82
2018-11-21T13:17:40.470Z,99834.56
2018-11-21T13:20:43.243Z,99838.88
2018-11-21T13:23:27.396Z,99846.28
2018-11-21T13:26:32.896Z,99852.38
2018-11-21T13:29:38.896Z,99857.46
2018-11-21T13:32:25.089Z,99857.02
2018-11-21T13:35:11.809Z,99849.14
2018-11-21T13:37:54.919Z,99850.27
2018-11-21T13:40:45.746Z,99848.94
2018-11-21T13:43:31.866Z,99842.89
2018-11-21T13:46:12.348Z,99850.89
2018-11-21T13:49:05.673Z,99848.59
2018-11-21T13:51:51.996Z,99854.47
2018-11-21T13:54:39.273Z,99853.97
2018-11-21T13:57:08.063Z,99860.54
2018-11-21T13:59:35.830Z,99862.02
2018-11-21T14:02:04.564Z,99861.88
2018-11-21T14:04:32.278Z,99862.19
2018-11-21T14:07:01.104Z,99866.63
2018-11-21T14:09:29.244Z,99873.97
2018-11-21T14:11:57.605Z,99873.34
2018-11-21T14:14:25.301Z,99877.92
2018-11-21T14:16:53.819Z,99882.50
2018-11-21T14:19:21.670Z,99885.77
2018-11-21T14:21:55.849Z,99894.43
2018-11-21T14:24:17.714Z,99896.38
2018-11-21T14:26:46.548Z,99894.38
2018-11-21T14:29:14.198Z,99898.95
2018-11-21T14:31:42.799Z,99897.47
2018-11-21T14:34:10.488Z,99901.37
2018-11-21T14:36:38.399Z,99909.20
2018-11-21T14:39:11.670Z,99909.02
2018-11-21T14:41:40.439Z,99911.78
2018-11-21T14:44:09.704Z,99919.27
2018-11-21T14:46:38.186Z,99921.03
2018-11-21T14:49:07.332Z,99927.05
2018-11-21T14:51:35.425Z,99936.81
2018-11-21T14:54:04.588Z,99945.42
2018-11-21T14:56:33.100Z,99945.23
2018-11-21T14:59:01.363Z,99946.50
2018-11-21T15:01:29.101Z,99951.36
2018-11-21T15:03:57.935Z,99957.68
2018-11-21T15:06:25.917Z,99959.11
2018-11-21T15:08:55.028Z,99960.89
2018-11-21T15:11:23.547Z,99964.77
2018-11-21T15:13:51.715Z,99976.34
2018-11-21T15:16:19.400Z,99978.42
2018-11-21T15:18:48.692Z,99976.41
2018-11-21T15:21:16.890Z,99980.80
2018-11-21T15:23:44.988Z,99984.34
2018-11-21T15:26:13.478Z,99984.78
2018-11-21T15:28:41.157Z,99983.95
2018-11-21T15:31:09.689Z,99991.90
2018-11-21T15:33:38.126Z,99994.00
2018-11-21T15:36:06.392Z,99995.11
2018-11-21T15:38:34.724Z,99997.05
2018-11-21T15:41:03.975Z,99996.88
2018-11-21T15:43:31.625Z,99998.82
2018-11-21T15:46:00.196Z,100000.89
2018-11-21T15:48:28.267Z,99999.41
2018-11-21T15:50:56.948Z,100005.72
2018-11-21T15:53:25.120Z,100007.34
2018-11-21T15:55:53.269Z,100009.73
2018-11-21T15:58:21.994Z,100013.47
2018-11-21T16:00:49.731Z,100017.81
2018-11-21T16:03:17.900Z,100022.77
2018-11-21T16:05:45.637Z,100025.34
2018-11-21T16:08:14.138Z,100029.50
2018-11-21T16:10:43.853Z,100034.74
2018-11-21T16:13:11.739Z,100035.62
2018-11-21T16:15:47.862Z,100037.17
2018-11-21T16:18:17.176Z,100040.53
2018-11-21T16:20:44.979Z,100045.97
2018-11-21T16:23:13.358Z,100048.95
2018-11-21T16:25:41.515Z,100049.34
2018-11-21T16:28:09.024Z,100052.66
2018-11-21T16:30:36.721Z,100054.63
2018-11-21T16:33:05.532Z,100061.09
2018-11-21T16:35:33.524Z,100061.36
2018-11-21T16:38:02.014Z,100060.91
2018-11-21T16:40:31.104Z,100060.91
2018-11-21T16:42:59.531Z,100058.64
2018-11-21T16:45:33.879Z,100058.50
2018-11-21T16:48:01.605Z,100068.76
2018-11-21T16:50:29.929Z,100061.73
2018-11-21T16:52:57.934Z,100063.14
2018-11-21T16:55:26.563Z,100068.98
2018-11-21T16:57:57.626Z,100067.49
2018-11-21T17:00:27.432Z,100069.76
2018-11-21T17:02:55.553Z,100070.20
2018-11-21T17:05:25.202Z,100068.57
2018-11-21T17:07:52.948Z,100072.81
2018-11-21T17:10:22.921Z,100071.17
2018-11-21T17:12:50.709Z,100076.04
2018-11-21T17:15:26.308Z,100071.80
2018-11-21T17:17:54.120Z,100077.16
2018-11-21T17:20:29.641Z,100075.63
2018-11-21T17:22:58.334Z,100071.83
2018-11-21T17:25:31.514Z,100079.41
2018-11-21T17:27:59.205Z,100080.30
2018-11-21T17:30:27.275Z,100080.25
2018-11-21T17:32:55.184Z,100081.13
2018-11-21T17:35:23.769Z,100084.13
2018-11-21T17:37:52.144Z,100088.80
2018-11-21T17:40:24.548Z,100092.77
2018-11-21T17:42:52.780Z,100095.66
2018-11-21T17:45:21.696Z,100099.61
2018-11-21T17:47:49.439Z,100095.77
2018-11-21T17:50:18.984Z,100096.50
2018-11-21T17:52:47.568Z,100098.70
